Pagrindinis puslapis
METAR-TAF:

METAR-TAF

Oro uostai :

Gambell, Aliaska, Jungtinės Amerikos Valstijos

platuma: 63-46N, ilguma: 171-44W, Aukštis: 8 m

Dabartinis oras

Ataskaita buvo paskelbta 13 minutes, ne 03:56 UTC
Vėjas 4 kt iš Šiaurės/Šiaurės Vakarų
Temperatūra 9°C
Drėgmė 81%
Slėgis 1011 hPa
Matomumas: 16.1 km
Apsiniaukę ne aukštis 3400 ft

METAR: PAGM 160356Z AUTO 33004KT 10SM OVC034 09/06 A2986 RMK AO2 SLP117 T00890061

Laikas: 20:09 (04:09 UTC)


TAF: trūkstamas

Orai ataskaitas ir orų prognozės (METAR, TAF).

turimą stotys yra geltonos ir raudonos taškus žemėlapyje.

Perkelti pele per norėdami pamatyti stoties vardą.

Tada spustelėkite, norėdami matyti oro stebėjimo ir prognozės.

Norėdami pakeisti žemėlapį: spustelėkite ant žalios mygtukų su juodo kryžiaus žemyn,; žalią mygtuką su brūkšneliu, jei norite nutolinti; arba žalių rodyklių gretimoms žemėlapius.


METAR-TAF: